sensor_id;sensor_type;location;lat;lon;timestamp;P1;durP1;ratioP1;P2;durP2;ratioP2
27632;SDS011;15046;50.930;13.334;2024-02-15T00:02:22;2.70;;;1.58;;
27632;SDS011;15046;50.930;13.334;2024-02-15T00:04:48;3.30;;;1.27;;
27632;SDS011;15046;50.930;13.334;2024-02-15T00:07:14;2.50;;;1.40;;
27632;SDS011;15046;50.930;13.334;2024-02-15T00:09:39;1.55;;;0.90;;
27632;SDS011;15046;50.930;13.334;2024-02-15T00:12:05;2.47;;;1.25;;
27632;SDS011;15046;50.930;13.334;2024-02-15T00:14:31;2.95;;;1.33;;
27632;SDS011;15046;50.930;13.334;2024-02-15T00:16:57;2.47;;;1.23;;
27632;SDS011;15046;50.930;13.334;2024-02-15T00:19:23;1.60;;;0.93;;
27632;SDS011;15046;50.930;13.334;2024-02-15T00:21:49;2.45;;;1.17;;
27632;SDS011;15046;50.930;13.334;2024-02-15T00:24:15;1.13;;;0.80;;
27632;SDS011;15046;50.930;13.334;2024-02-15T00:26:41;2.17;;;0.98;;
27632;SDS011;15046;50.930;13.334;2024-02-15T00:29:09;2.05;;;1.17;;
27632;SDS011;15046;50.930;13.334;2024-02-15T00:31:36;1.50;;;1.00;;
27632;SDS011;15046;50.930;13.334;2024-02-15T00:34:03;1.92;;;1.05;;
27632;SDS011;15046;50.930;13.334;2024-02-15T00:36:29;2.28;;;1.17;;
27632;SDS011;15046;50.930;13.334;2024-02-15T00:38:55;1.80;;;1.08;;
27632;SDS011;15046;50.930;13.334;2024-02-15T00:41:21;1.27;;;0.95;;
27632;SDS011;15046;50.930;13.334;2024-02-15T00:43:47;5.03;;;1.40;;
27632;SDS011;15046;50.930;13.334;2024-02-15T00:46:13;2.25;;;1.25;;
27632;SDS011;15046;50.930;13.334;2024-02-15T00:48:39;1.77;;;1.05;;
27632;SDS011;15046;50.930;13.334;2024-02-15T00:51:06;2.33;;;1.15;;
27632;SDS011;15046;50.930;13.334;2024-02-15T00:53:32;3.03;;;1.38;;
27632;SDS011;15046;50.930;13.334;2024-02-15T00:55:57;3.05;;;1.35;;
27632;SDS011;15046;50.930;13.334;2024-02-15T00:58:23;3.25;;;1.48;;
27632;SDS011;15046;50.930;13.334;2024-02-15T01:00:51;2.20;;;1.20;;
27632;SDS011;15046;50.930;13.334;2024-02-15T01:03:18;2.63;;;1.40;;
27632;SDS011;15046;50.930;13.334;2024-02-15T01:05:44;2.17;;;1.27;;
27632;SDS011;15046;50.930;13.334;2024-02-15T01:08:10;2.67;;;1.48;;
27632;SDS011;15046;50.930;13.334;2024-02-15T01:10:36;2.88;;;1.48;;
27632;SDS011;15046;50.930;13.334;2024-02-15T01:13:03;3.22;;;1.40;;
27632;SDS011;15046;50.930;13.334;2024-02-15T01:15:28;2.45;;;1.30;;
27632;SDS011;15046;50.930;13.334;2024-02-15T01:17:54;2.10;;;1.20;;
27632;SDS011;15046;50.930;13.334;2024-02-15T01:20:20;2.88;;;1.33;;
27632;SDS011;15046;50.930;13.334;2024-02-15T01:22:46;2.28;;;1.30;;
27632;SDS011;15046;50.930;13.334;2024-02-15T01:25:12;1.55;;;1.00;;
27632;SDS011;15046;50.930;13.334;2024-02-15T01:27:40;2.47;;;1.58;;
27632;SDS011;15046;50.930;13.334;2024-02-15T01:30:07;2.92;;;1.25;;
27632;SDS011;15046;50.930;13.334;2024-02-15T01:32:33;2.88;;;1.60;;
27632;SDS011;15046;50.930;13.334;2024-02-15T01:34:59;2.42;;;1.30;;
27632;SDS011;15046;50.930;13.334;2024-02-15T01:37:25;1.75;;;1.10;;
27632;SDS011;15046;50.930;13.334;2024-02-15T01:39:51;3.42;;;1.30;;
27632;SDS011;15046;50.930;13.334;2024-02-15T01:42:17;3.63;;;1.40;;
27632;SDS011;15046;50.930;13.334;2024-02-15T01:44:44;2.13;;;1.20;;
27632;SDS011;15046;50.930;13.334;2024-02-15T01:47:13;2.85;;;1.30;;
27632;SDS011;15046;50.930;13.334;2024-02-15T01:49:39;2.53;;;1.23;;
27632;SDS011;15046;50.930;13.334;2024-02-15T01:52:06;2.28;;;1.20;;
27632;SDS011;15046;50.930;13.334;2024-02-15T01:54:34;2.15;;;1.30;;
27632;SDS011;15046;50.930;13.334;2024-02-15T01:57:04;2.35;;;1.33;;
27632;SDS011;15046;50.930;13.334;2024-02-15T01:59:30;2.13;;;1.20;;
27632;SDS011;15046;50.930;13.334;2024-02-15T02:01:56;2.33;;;1.20;;
27632;SDS011;15046;50.930;13.334;2024-02-15T02:04:22;2.63;;;1.38;;
27632;SDS011;15046;50.930;13.334;2024-02-15T02:06:48;2.17;;;1.20;;
27632;SDS011;15046;50.930;13.334;2024-02-15T02:09:14;2.08;;;1.17;;
27632;SDS011;15046;50.930;13.334;2024-02-15T02:11:41;2.42;;;1.15;;
27632;SDS011;15046;50.930;13.334;2024-02-15T02:14:09;2.38;;;1.30;;
27632;SDS011;15046;50.930;13.334;2024-02-15T02:16:36;4.15;;;1.30;;
27632;SDS011;15046;50.930;13.334;2024-02-15T02:19:04;2.30;;;1.25;;
27632;SDS011;15046;50.930;13.334;2024-02-15T02:24:02;3.15;;;1.75;;
27632;SDS011;15046;50.930;13.334;2024-02-15T02:26:34;3.50;;;1.65;;
27632;SDS011;15046;50.930;13.334;2024-02-15T02:29:01;2.83;;;1.80;;
27632;SDS011;15046;50.930;13.334;2024-02-15T02:34:17;2.97;;;1.60;;
27632;SDS011;15046;50.930;13.334;2024-02-15T02:36:44;3.10;;;1.80;;
27632;SDS011;15046;50.930;13.334;2024-02-15T02:39:12;3.10;;;1.67;;
27632;SDS011;15046;50.930;13.334;2024-02-15T02:41:38;2.78;;;1.65;;
27632;SDS011;15046;50.930;13.334;2024-02-15T02:44:04;3.42;;;1.55;;
27632;SDS011;15046;50.930;13.334;2024-02-15T02:46:29;3.17;;;1.70;;
27632;SDS011;15046;50.930;13.334;2024-02-15T02:48:55;2.90;;;1.80;;
27632;SDS011;15046;50.930;13.334;2024-02-15T02:51:21;3.42;;;1.85;;
27632;SDS011;15046;50.930;13.334;2024-02-15T02:53:47;3.97;;;1.98;;
27632;SDS011;15046;50.930;13.334;2024-02-15T02:56:13;3.20;;;1.88;;
27632;SDS011;15046;50.930;13.334;2024-02-15T02:58:39;3.83;;;1.98;;
27632;SDS011;15046;50.930;13.334;2024-02-15T03:01:08;3.58;;;2.33;;
27632;SDS011;15046;50.930;13.334;2024-02-15T03:03:34;3.58;;;2.13;;
27632;SDS011;15046;50.930;13.334;2024-02-15T03:06:00;3.78;;;2.08;;
27632;SDS011;15046;50.930;13.334;2024-02-15T03:08:26;3.05;;;1.90;;
27632;SDS011;15046;50.930;13.334;2024-02-15T03:10:52;2.88;;;1.70;;
27632;SDS011;15046;50.930;13.334;2024-02-15T03:13:18;3.22;;;1.80;;
27632;SDS011;15046;50.930;13.334;2024-02-15T03:15:45;3.08;;;1.75;;
27632;SDS011;15046;50.930;13.334;2024-02-15T03:18:14;3.33;;;1.85;;
27632;SDS011;15046;50.930;13.334;2024-02-15T03:20:43;3.17;;;1.80;;
27632;SDS011;15046;50.930;13.334;2024-02-15T03:23:08;3.03;;;1.70;;
27632;SDS011;15046;50.930;13.334;2024-02-15T03:25:34;2.60;;;1.50;;
27632;SDS011;15046;50.930;13.334;2024-02-15T03:28:00;2.63;;;1.60;;
27632;SDS011;15046;50.930;13.334;2024-02-15T03:30:32;2.27;;;1.50;;
27632;SDS011;15046;50.930;13.334;2024-02-15T03:33:01;3.97;;;1.77;;
27632;SDS011;15046;50.930;13.334;2024-02-15T03:35:30;2.80;;;1.70;;
27632;SDS011;15046;50.930;13.334;2024-02-15T03:37:56;2.60;;;1.60;;
27632;SDS011;15046;50.930;13.334;2024-02-15T03:40:22;2.40;;;1.55;;
27632;SDS011;15046;50.930;13.334;2024-02-15T03:42:51;3.30;;;2.10;;
27632;SDS011;15046;50.930;13.334;2024-02-15T03:45:18;2.33;;;1.33;;
27632;SDS011;15046;50.930;13.334;2024-02-15T03:47:43;3.17;;;1.65;;
27632;SDS011;15046;50.930;13.334;2024-02-15T03:50:10;2.47;;;1.50;;
27632;SDS011;15046;50.930;13.334;2024-02-15T03:52:37;3.80;;;1.50;;
27632;SDS011;15046;50.930;13.334;2024-02-15T03:55:03;2.97;;;1.50;;
27632;SDS011;15046;50.930;13.334;2024-02-15T03:57:30;3.40;;;1.52;;
27632;SDS011;15046;50.930;13.334;2024-02-15T03:59:56;3.40;;;1.60;;
27632;SDS011;15046;50.930;13.334;2024-02-15T04:02:22;2.35;;;1.48;;
27632;SDS011;15046;50.930;13.334;2024-02-15T04:04:54;2.55;;;1.52;;
27632;SDS011;15046;50.930;13.334;2024-02-15T04:07:20;2.78;;;1.73;;
27632;SDS011;15046;50.930;13.334;2024-02-15T04:09:47;2.67;;;1.60;;
27632;SDS011;15046;50.930;13.334;2024-02-15T04:12:16;2.73;;;1.60;;
27632;SDS011;15046;50.930;13.334;2024-02-15T04:14:42;3.03;;;1.50;;
27632;SDS011;15046;50.930;13.334;2024-02-15T04:17:10;2.30;;;1.52;;
27632;SDS011;15046;50.930;13.334;2024-02-15T04:19:39;3.22;;;1.70;;
27632;SDS011;15046;50.930;13.334;2024-02-15T04:22:05;2.42;;;1.63;;
27632;SDS011;15046;50.930;13.334;2024-02-15T04:24:37;2.75;;;1.70;;
27632;SDS011;15046;50.930;13.334;2024-02-15T04:27:05;2.85;;;1.60;;
27632;SDS011;15046;50.930;13.334;2024-02-15T04:29:37;2.72;;;1.63;;
27632;SDS011;15046;50.930;13.334;2024-02-15T04:32:06;3.60;;;2.05;;
27632;SDS011;15046;50.930;13.334;2024-02-15T04:34:34;3.10;;;1.70;;
27632;SDS011;15046;50.930;13.334;2024-02-15T04:36:59;2.60;;;1.60;;
27632;SDS011;15046;50.930;13.334;2024-02-15T04:39:26;3.30;;;1.90;;
27632;SDS011;15046;50.930;13.334;2024-02-15T04:41:55;4.30;;;2.07;;
27632;SDS011;15046;50.930;13.334;2024-02-15T04:44:21;4.07;;;2.13;;
27632;SDS011;15046;50.930;13.334;2024-02-15T04:46:47;3.70;;;2.13;;
27632;SDS011;15046;50.930;13.334;2024-02-15T04:49:14;3.05;;;1.65;;
27632;SDS011;15046;50.930;13.334;2024-02-15T04:51:40;3.03;;;1.85;;
27632;SDS011;15046;50.930;13.334;2024-02-15T04:54:07;3.67;;;1.75;;
27632;SDS011;15046;50.930;13.334;2024-02-15T04:56:33;3.97;;;2.20;;
27632;SDS011;15046;50.930;13.334;2024-02-15T04:59:01;3.05;;;1.70;;
27632;SDS011;15046;50.930;13.334;2024-02-15T05:01:27;3.22;;;1.67;;
27632;SDS011;15046;50.930;13.334;2024-02-15T05:03:54;4.03;;;2.00;;
27632;SDS011;15046;50.930;13.334;2024-02-15T05:06:20;2.90;;;1.80;;
27632;SDS011;15046;50.930;13.334;2024-02-15T05:08:46;3.28;;;1.70;;
27632;SDS011;15046;50.930;13.334;2024-02-15T05:11:12;3.80;;;1.60;;
27632;SDS011;15046;50.930;13.334;2024-02-15T05:13:45;2.80;;;1.63;;
27632;SDS011;15046;50.930;13.334;2024-02-15T05:16:11;2.70;;;1.40;;
27632;SDS011;15046;50.930;13.334;2024-02-15T05:18:37;2.78;;;1.67;;
27632;SDS011;15046;50.930;13.334;2024-02-15T05:21:05;2.30;;;1.50;;
27632;SDS011;15046;50.930;13.334;2024-02-15T05:23:34;2.95;;;1.75;;
27632;SDS011;15046;50.930;13.334;2024-02-15T05:26:01;3.03;;;1.50;;
27632;SDS011;15046;50.930;13.334;2024-02-15T05:28:28;3.13;;;1.52;;
27632;SDS011;15046;50.930;13.334;2024-02-15T05:33:37;3.03;;;1.70;;
27632;SDS011;15046;50.930;13.334;2024-02-15T05:36:07;3.03;;;1.48;;
27632;SDS011;15046;50.930;13.334;2024-02-15T05:38:33;2.88;;;1.40;;
27632;SDS011;15046;50.930;13.334;2024-02-15T05:40:59;3.65;;;1.50;;
27632;SDS011;15046;50.930;13.334;2024-02-15T05:43:25;2.25;;;1.25;;
27632;SDS011;15046;50.930;13.334;2024-02-15T05:45:51;2.20;;;1.33;;
27632;SDS011;15046;50.930;13.334;2024-02-15T05:48:18;2.72;;;1.58;;
27632;SDS011;15046;50.930;13.334;2024-02-15T05:50:43;3.15;;;1.60;;
27632;SDS011;15046;50.930;13.334;2024-02-15T05:53:09;3.25;;;1.70;;
27632;SDS011;15046;50.930;13.334;2024-02-15T05:55:35;3.83;;;1.65;;
27632;SDS011;15046;50.930;13.334;2024-02-15T05:58:02;3.88;;;1.92;;
27632;SDS011;15046;50.930;13.334;2024-02-15T06:00:29;2.88;;;1.70;;
27632;SDS011;15046;50.930;13.334;2024-02-15T06:02:55;4.03;;;1.60;;
27632;SDS011;15046;50.930;13.334;2024-02-15T06:05:21;3.28;;;1.95;;
27632;SDS011;15046;50.930;13.334;2024-02-15T06:07:47;3.25;;;1.67;;
27632;SDS011;15046;50.930;13.334;2024-02-15T06:10:13;4.70;;;2.33;;
27632;SDS011;15046;50.930;13.334;2024-02-15T06:12:40;4.88;;;2.42;;
27632;SDS011;15046;50.930;13.334;2024-02-15T06:15:06;4.90;;;2.30;;
27632;SDS011;15046;50.930;13.334;2024-02-15T06:17:39;4.35;;;2.42;;
27632;SDS011;15046;50.930;13.334;2024-02-15T06:20:09;5.03;;;2.45;;
27632;SDS011;15046;50.930;13.334;2024-02-15T06:22:39;3.72;;;2.10;;
27632;SDS011;15046;50.930;13.334;2024-02-15T06:25:05;3.85;;;2.10;;
27632;SDS011;15046;50.930;13.334;2024-02-15T06:27:31;4.07;;;2.20;;
27632;SDS011;15046;50.930;13.334;2024-02-15T06:29:57;5.53;;;2.13;;
27632;SDS011;15046;50.930;13.334;2024-02-15T06:32:42;3.30;;;2.08;;
27632;SDS011;15046;50.930;13.334;2024-02-15T06:35:27;4.65;;;2.05;;
27632;SDS011;15046;50.930;13.334;2024-02-15T06:38:11;3.47;;;1.90;;
27632;SDS011;15046;50.930;13.334;2024-02-15T06:40:55;4.63;;;1.90;;
27632;SDS011;15046;50.930;13.334;2024-02-15T06:43:20;3.97;;;2.13;;
27632;SDS011;15046;50.930;13.334;2024-02-15T06:45:46;4.20;;;1.95;;
27632;SDS011;15046;50.930;13.334;2024-02-15T06:48:12;4.88;;;1.90;;
27632;SDS011;15046;50.930;13.334;2024-02-15T06:50:38;3.63;;;1.90;;
27632;SDS011;15046;50.930;13.334;2024-02-15T06:53:04;3.30;;;1.98;;
27632;SDS011;15046;50.930;13.334;2024-02-15T06:55:30;3.90;;;1.95;;
27632;SDS011;15046;50.930;13.334;2024-02-15T06:57:56;4.30;;;1.88;;
27632;SDS011;15046;50.930;13.334;2024-02-15T07:00:22;3.50;;;2.00;;
27632;SDS011;15046;50.930;13.334;2024-02-15T07:02:49;3.78;;;1.92;;
27632;SDS011;15046;50.930;13.334;2024-02-15T07:05:15;3.72;;;2.20;;
27632;SDS011;15046;50.930;13.334;2024-02-15T07:07:42;4.78;;;2.25;;
27632;SDS011;15046;50.930;13.334;2024-02-15T07:10:08;4.43;;;2.60;;
27632;SDS011;15046;50.930;13.334;2024-02-15T07:12:35;4.03;;;2.00;;
27632;SDS011;15046;50.930;13.334;2024-02-15T07:15:03;3.97;;;2.15;;
27632;SDS011;15046;50.930;13.334;2024-02-15T07:17:32;4.38;;;2.40;;
27632;SDS011;15046;50.930;13.334;2024-02-15T07:19:57;4.32;;;2.40;;
27632;SDS011;15046;50.930;13.334;2024-02-15T07:22:23;3.80;;;2.00;;
27632;SDS011;15046;50.930;13.334;2024-02-15T07:24:52;3.55;;;1.95;;
27632;SDS011;15046;50.930;13.334;2024-02-15T07:27:17;3.38;;;2.05;;
27632;SDS011;15046;50.930;13.334;2024-02-15T07:29:43;4.00;;;2.25;;
27632;SDS011;15046;50.930;13.334;2024-02-15T07:32:09;4.43;;;2.60;;
27632;SDS011;15046;50.930;13.334;2024-02-15T07:34:35;3.65;;;2.10;;
27632;SDS011;15046;50.930;13.334;2024-02-15T07:37:02;4.57;;;2.90;;
27632;SDS011;15046;50.930;13.334;2024-02-15T07:39:28;6.45;;;2.80;;
27632;SDS011;15046;50.930;13.334;2024-02-15T07:41:54;4.93;;;2.65;;
27632;SDS011;15046;50.930;13.334;2024-02-15T07:44:20;9.25;;;3.38;;
27632;SDS011;15046;50.930;13.334;2024-02-15T07:46:47;5.68;;;3.00;;
27632;SDS011;15046;50.930;13.334;2024-02-15T07:49:12;4.95;;;2.60;;
27632;SDS011;15046;50.930;13.334;2024-02-15T07:51:38;5.45;;;3.08;;
27632;SDS011;15046;50.930;13.334;2024-02-15T07:54:05;5.30;;;3.08;;
27632;SDS011;15046;50.930;13.334;2024-02-15T07:56:31;5.72;;;3.28;;
27632;SDS011;15046;50.930;13.334;2024-02-15T07:58:57;5.38;;;2.83;;
27632;SDS011;15046;50.930;13.334;2024-02-15T08:01:22;4.30;;;2.50;;
27632;SDS011;15046;50.930;13.334;2024-02-15T08:03:48;4.50;;;2.65;;
27632;SDS011;15046;50.930;13.334;2024-02-15T08:06:15;4.78;;;2.95;;
27632;SDS011;15046;50.930;13.334;2024-02-15T08:08:42;5.78;;;3.33;;
27632;SDS011;15046;50.930;13.334;2024-02-15T08:11:11;5.07;;;3.13;;
27632;SDS011;15046;50.930;13.334;2024-02-15T08:13:49;5.07;;;3.03;;
27632;SDS011;15046;50.930;13.334;2024-02-15T08:16:19;4.28;;;2.65;;
27632;SDS011;15046;50.930;13.334;2024-02-15T08:18:51;5.60;;;2.22;;
27632;SDS011;15046;50.930;13.334;2024-02-15T08:21:27;9.15;;;3.42;;
27632;SDS011;15046;50.930;13.334;2024-02-15T08:23:58;4.13;;;2.28;;
27632;SDS011;15046;50.930;13.334;2024-02-15T08:26:25;4.35;;;2.47;;
27632;SDS011;15046;50.930;13.334;2024-02-15T08:28:51;3.75;;;2.08;;
27632;SDS011;15046;50.930;13.334;2024-02-15T08:31:18;4.65;;;2.42;;
27632;SDS011;15046;50.930;13.334;2024-02-15T08:33:44;3.88;;;2.28;;
27632;SDS011;15046;50.930;13.334;2024-02-15T08:36:11;4.13;;;2.35;;
27632;SDS011;15046;50.930;13.334;2024-02-15T08:38:39;3.72;;;2.28;;
27632;SDS011;15046;50.930;13.334;2024-02-15T08:41:06;3.55;;;1.95;;
27632;SDS011;15046;50.930;13.334;2024-02-15T08:43:33;3.83;;;2.33;;
27632;SDS011;15046;50.930;13.334;2024-02-15T08:45:59;4.72;;;1.90;;
27632;SDS011;15046;50.930;13.334;2024-02-15T08:48:26;3.28;;;1.80;;
27632;SDS011;15046;50.930;13.334;2024-02-15T08:50:51;3.70;;;2.20;;
27632;SDS011;15046;50.930;13.334;2024-02-15T08:53:17;3.08;;;1.80;;
27632;SDS011;15046;50.930;13.334;2024-02-15T08:55:47;5.07;;;2.00;;
27632;SDS011;15046;50.930;13.334;2024-02-15T08:58:13;3.47;;;1.80;;
27632;SDS011;15046;50.930;13.334;2024-02-15T09:00:39;3.13;;;1.75;;
27632;SDS011;15046;50.930;13.334;2024-02-15T09:03:09;3.33;;;1.70;;
27632;SDS011;15046;50.930;13.334;2024-02-15T09:05:41;3.53;;;1.98;;
27632;SDS011;15046;50.930;13.334;2024-02-15T09:08:07;2.60;;;1.50;;
27632;SDS011;15046;50.930;13.334;2024-02-15T09:10:33;2.85;;;1.58;;
27632;SDS011;15046;50.930;13.334;2024-02-15T09:13:01;2.42;;;1.50;;
27632;SDS011;15046;50.930;13.334;2024-02-15T09:15:27;5.07;;;1.55;;
27632;SDS011;15046;50.930;13.334;2024-02-15T09:17:55;3.40;;;1.83;;
27632;SDS011;15046;50.930;13.334;2024-02-15T09:20:23;2.65;;;1.58;;
27632;SDS011;15046;50.930;13.334;2024-02-15T09:22:53;2.78;;;1.65;;
27632;SDS011;15046;50.930;13.334;2024-02-15T09:25:20;3.20;;;1.70;;
27632;SDS011;15046;50.930;13.334;2024-02-15T09:27:49;3.55;;;1.98;;
27632;SDS011;15046;50.930;13.334;2024-02-15T09:30:16;4.65;;;2.10;;
27632;SDS011;15046;50.930;13.334;2024-02-15T09:32:43;2.72;;;1.52;;
27632;SDS011;15046;50.930;13.334;2024-02-15T09:35:10;3.35;;;1.75;;
27632;SDS011;15046;50.930;13.334;2024-02-15T09:37:46;4.10;;;1.95;;
27632;SDS011;15046;50.930;13.334;2024-02-15T09:40:14;3.08;;;1.70;;
27632;SDS011;15046;50.930;13.334;2024-02-15T09:42:42;3.33;;;1.73;;
27632;SDS011;15046;50.930;13.334;2024-02-15T09:45:10;4.15;;;2.30;;
27632;SDS011;15046;50.930;13.334;2024-02-15T09:47:41;3.58;;;1.90;;
27632;SDS011;15046;50.930;13.334;2024-02-15T09:52:36;2.42;;;1.50;;
27632;SDS011;15046;50.930;13.334;2024-02-15T09:55:09;4.22;;;2.08;;
27632;SDS011;15046;50.930;13.334;2024-02-15T09:57:38;3.83;;;2.33;;
27632;SDS011;15046;50.930;13.334;2024-02-15T10:00:04;3.30;;;1.90;;
27632;SDS011;15046;50.930;13.334;2024-02-15T10:02:32;3.47;;;1.85;;
27632;SDS011;15046;50.930;13.334;2024-02-15T10:05:03;10.20;;;2.47;;
27632;SDS011;15046;50.930;13.334;2024-02-15T10:07:29;6.35;;;1.50;;
27632;SDS011;15046;50.930;13.334;2024-02-15T10:09:55;4.85;;;2.20;;
27632;SDS011;15046;50.930;13.334;2024-02-15T10:12:20;4.30;;;1.90;;
27632;SDS011;15046;50.930;13.334;2024-02-15T10:14:50;5.38;;;2.13;;
27632;SDS011;15046;50.930;13.334;2024-02-15T10:17:19;4.68;;;2.22;;
27632;SDS011;15046;50.930;13.334;2024-02-15T10:20:02;3.53;;;2.15;;
27632;SDS011;15046;50.930;13.334;2024-02-15T10:22:28;7.10;;;2.70;;
27632;SDS011;15046;50.930;13.334;2024-02-15T10:25:13;4.60;;;2.25;;
27632;SDS011;15046;50.930;13.334;2024-02-15T10:27:39;4.40;;;2.45;;
27632;SDS011;15046;50.930;13.334;2024-02-15T10:30:23;4.80;;;2.70;;
27632;SDS011;15046;50.930;13.334;2024-02-15T10:32:50;3.95;;;2.20;;
27632;SDS011;15046;50.930;13.334;2024-02-15T10:35:19;3.58;;;2.40;;
27632;SDS011;15046;50.930;13.334;2024-02-15T10:37:46;4.05;;;2.72;;
27632;SDS011;15046;50.930;13.334;2024-02-15T10:42:46;4.22;;;2.30;;
27632;SDS011;15046;50.930;13.334;2024-02-15T10:45:14;4.78;;;2.50;;
27632;SDS011;15046;50.930;13.334;2024-02-15T10:47:46;4.85;;;2.70;;
27632;SDS011;15046;50.930;13.334;2024-02-15T10:50:12;4.15;;;2.47;;
27632;SDS011;15046;50.930;13.334;2024-02-15T10:52:43;4.57;;;2.28;;
27632;SDS011;15046;50.930;13.334;2024-02-15T10:55:37;3.67;;;2.20;;
27632;SDS011;15046;50.930;13.334;2024-02-15T10:58:05;4.88;;;2.70;;
27632;SDS011;15046;50.930;13.334;2024-02-15T11:00:34;3.97;;;2.15;;
27632;SDS011;15046;50.930;13.334;2024-02-15T11:03:05;4.25;;;2.22;;
27632;SDS011;15046;50.930;13.334;2024-02-15T11:05:36;4.10;;;2.28;;
27632;SDS011;15046;50.930;13.334;2024-02-15T11:08:07;4.30;;;2.33;;
27632;SDS011;15046;50.930;13.334;2024-02-15T11:10:35;3.55;;;1.98;;
27632;SDS011;15046;50.930;13.334;2024-02-15T11:13:02;3.70;;;2.15;;
27632;SDS011;15046;50.930;13.334;2024-02-15T11:15:47;4.65;;;2.20;;
27632;SDS011;15046;50.930;13.334;2024-02-15T11:21:14;2.90;;;1.73;;
27632;SDS011;15046;50.930;13.334;2024-02-15T11:23:41;5.10;;;2.63;;
27632;SDS011;15046;50.930;13.334;2024-02-15T11:26:42;3.78;;;2.40;;
27632;SDS011;15046;50.930;13.334;2024-02-15T11:29:26;4.88;;;2.78;;
27632;SDS011;15046;50.930;13.334;2024-02-15T11:37:50;5.00;;;2.10;;
27632;SDS011;15046;50.930;13.334;2024-02-15T11:40:16;10.30;;;5.38;;
27632;SDS011;15046;50.930;13.334;2024-02-15T11:42:42;4.82;;;2.47;;
27632;SDS011;15046;50.930;13.334;2024-02-15T11:45:09;3.78;;;2.25;;
27632;SDS011;15046;50.930;13.334;2024-02-15T11:47:38;5.68;;;3.45;;
27632;SDS011;15046;50.930;13.334;2024-02-15T11:50:07;6.90;;;3.97;;
27632;SDS011;15046;50.930;13.334;2024-02-15T11:55:14;3.97;;;2.63;;
27632;SDS011;15046;50.930;13.334;2024-02-15T12:00:46;4.05;;;1.77;;
27632;SDS011;15046;50.930;13.334;2024-02-15T12:03:30;3.88;;;2.28;;
27632;SDS011;15046;50.930;13.334;2024-02-15T12:06:17;4.13;;;2.28;;
27632;SDS011;15046;50.930;13.334;2024-02-15T12:09:02;4.47;;;1.88;;
27632;SDS011;15046;50.930;13.334;2024-02-15T12:11:46;2.45;;;1.50;;
27632;SDS011;15046;50.930;13.334;2024-02-15T12:14:30;4.00;;;1.60;;
27632;SDS011;15046;50.930;13.334;2024-02-15T12:17:15;2.65;;;1.50;;
27632;SDS011;15046;50.930;13.334;2024-02-15T12:20:00;4.10;;;1.70;;
27632;SDS011;15046;50.930;13.334;2024-02-15T12:22:35;5.35;;;2.65;;
27632;SDS011;15046;50.930;13.334;2024-02-15T12:25:06;4.47;;;2.17;;
27632;SDS011;15046;50.930;13.334;2024-02-15T12:27:45;4.43;;;1.90;;
27632;SDS011;15046;50.930;13.334;2024-02-15T12:30:17;3.70;;;1.95;;
27632;SDS011;15046;50.930;13.334;2024-02-15T12:32:51;3.65;;;1.73;;
27632;SDS011;15046;50.930;13.334;2024-02-15T12:35:19;4.55;;;1.67;;
27632;SDS011;15046;50.930;13.334;2024-02-15T12:37:46;3.38;;;1.40;;
27632;SDS011;15046;50.930;13.334;2024-02-15T12:40:13;5.18;;;1.48;;
27632;SDS011;15046;50.930;13.334;2024-02-15T12:42:45;3.50;;;2.00;;
27632;SDS011;15046;50.930;13.334;2024-02-15T12:45:18;2.65;;;1.60;;
27632;SDS011;15046;50.930;13.334;2024-02-15T12:47:50;2.17;;;1.30;;
27632;SDS011;15046;50.930;13.334;2024-02-15T12:50:17;3.40;;;1.40;;
27632;SDS011;15046;50.930;13.334;2024-02-15T12:52:48;2.35;;;1.05;;
27632;SDS011;15046;50.930;13.334;2024-02-15T12:57:42;3.38;;;1.50;;
27632;SDS011;15046;50.930;13.334;2024-02-15T13:00:14;3.35;;;1.40;;
27632;SDS011;15046;50.930;13.334;2024-02-15T13:02:46;2.88;;;1.33;;
27632;SDS011;15046;50.930;13.334;2024-02-15T13:05:19;2.63;;;1.35;;
27632;SDS011;15046;50.930;13.334;2024-02-15T13:07:47;3.20;;;1.42;;
27632;SDS011;15046;50.930;13.334;2024-02-15T13:10:13;3.28;;;1.70;;
27632;SDS011;15046;50.930;13.334;2024-02-15T13:12:43;1.95;;;1.10;;
27632;SDS011;15046;50.930;13.334;2024-02-15T13:15:10;4.80;;;1.85;;
27632;SDS011;15046;50.930;13.334;2024-02-15T13:17:43;3.30;;;1.55;;
27632;SDS011;15046;50.930;13.334;2024-02-15T13:20:19;3.25;;;1.50;;
27632;SDS011;15046;50.930;13.334;2024-02-15T13:22:52;2.28;;;1.30;;
27632;SDS011;15046;50.930;13.334;2024-02-15T13:25:18;2.53;;;1.27;;
27632;SDS011;15046;50.930;13.334;2024-02-15T13:27:46;3.58;;;1.50;;
27632;SDS011;15046;50.930;13.334;2024-02-15T13:30:12;3.65;;;1.35;;
27632;SDS011;15046;50.930;13.334;2024-02-15T13:32:39;2.25;;;1.08;;
27632;SDS011;15046;50.930;13.334;2024-02-15T13:35:09;1.48;;;1.00;;
27632;SDS011;15046;50.930;13.334;2024-02-15T13:40:09;2.47;;;1.38;;
27632;SDS011;15046;50.930;13.334;2024-02-15T13:42:41;4.40;;;2.10;;
27632;SDS011;15046;50.930;13.334;2024-02-15T13:45:21;3.33;;;1.25;;
27632;SDS011;15046;50.930;13.334;2024-02-15T13:47:48;2.58;;;1.10;;
27632;SDS011;15046;50.930;13.334;2024-02-15T13:50:20;2.15;;;1.20;;
27632;SDS011;15046;50.930;13.334;2024-02-15T13:52:46;5.60;;;1.50;;
27632;SDS011;15046;50.930;13.334;2024-02-15T13:55:16;2.25;;;1.20;;
27632;SDS011;15046;50.930;13.334;2024-02-15T13:57:43;4.10;;;1.15;;
27632;SDS011;15046;50.930;13.334;2024-02-15T14:00:12;6.93;;;1.27;;
27632;SDS011;15046;50.930;13.334;2024-02-15T14:02:52;3.75;;;1.75;;
27632;SDS011;15046;50.930;13.334;2024-02-15T14:05:19;3.67;;;1.17;;
27632;SDS011;15046;50.930;13.334;2024-02-15T14:07:55;1.65;;;1.15;;
27632;SDS011;15046;50.930;13.334;2024-02-15T14:10:27;2.25;;;1.27;;
27632;SDS011;15046;50.930;13.334;2024-02-15T14:12:54;2.50;;;1.08;;
27632;SDS011;15046;50.930;13.334;2024-02-15T14:15:21;2.22;;;1.10;;
27632;SDS011;15046;50.930;13.334;2024-02-15T14:17:49;2.47;;;1.33;;
27632;SDS011;15046;50.930;13.334;2024-02-15T14:20:15;1.77;;;0.98;;
27632;SDS011;15046;50.930;13.334;2024-02-15T14:22:43;1.67;;;1.00;;
27632;SDS011;15046;50.930;13.334;2024-02-15T14:25:10;2.83;;;1.50;;
27632;SDS011;15046;50.930;13.334;2024-02-15T14:27:39;1.60;;;1.08;;
27632;SDS011;15046;50.930;13.334;2024-02-15T14:30:05;3.50;;;1.10;;
27632;SDS011;15046;50.930;13.334;2024-02-15T14:32:50;3.05;;;0.90;;
27632;SDS011;15046;50.930;13.334;2024-02-15T14:35:32;1.70;;;1.00;;
27632;SDS011;15046;50.930;13.334;2024-02-15T14:38:00;3.30;;;0.90;;
27632;SDS011;15046;50.930;13.334;2024-02-15T14:40:35;4.25;;;1.85;;
27632;SDS011;15046;50.930;13.334;2024-02-15T14:43:02;1.50;;;0.90;;
27632;SDS011;15046;50.930;13.334;2024-02-15T14:45:30;3.67;;;1.55;;
27632;SDS011;15046;50.930;13.334;2024-02-15T14:47:57;1.90;;;1.00;;
27632;SDS011;15046;50.930;13.334;2024-02-15T14:50:24;2.55;;;1.10;;
27632;SDS011;15046;50.930;13.334;2024-02-15T14:52:50;2.28;;;1.20;;
27632;SDS011;15046;50.930;13.334;2024-02-15T14:55:18;1.88;;;1.25;;
27632;SDS011;15046;50.930;13.334;2024-02-15T14:57:44;1.75;;;0.90;;
27632;SDS011;15046;50.930;13.334;2024-02-15T15:00:11;2.85;;;1.30;;
27632;SDS011;15046;50.930;13.334;2024-02-15T15:02:43;2.17;;;1.25;;
27632;SDS011;15046;50.930;13.334;2024-02-15T15:05:11;3.80;;;1.80;;
27632;SDS011;15046;50.930;13.334;2024-02-15T15:07:59;3.97;;;1.95;;
27632;SDS011;15046;50.930;13.334;2024-02-15T15:10:47;4.90;;;2.05;;
27632;SDS011;15046;50.930;13.334;2024-02-15T15:13:32;3.08;;;1.70;;
27632;SDS011;15046;50.930;13.334;2024-02-15T15:15:59;4.75;;;1.65;;